sensor_id;sensor_type;location;lat;lon;timestamp;P1;P2;P0
44933;PMS3003;30667;43.614;1.442;2023-06-01T00:01:13;17.00;15.00;8.75
44933;PMS3003;30667;43.614;1.442;2023-06-01T00:03:39;18.25;14.25;8.25
44933;PMS3003;30667;43.614;1.442;2023-06-01T00:06:05;15.50;14.75;10.50
44933;PMS3003;30667;43.614;1.442;2023-06-01T00:08:31;18.00;15.80;9.00
44933;PMS3003;30667;43.614;1.442;2023-06-01T00:10:56;16.00;15.50;10.50
44933;PMS3003;30667;43.614;1.442;2023-06-01T00:13:22;17.75;16.00;10.00
44933;PMS3003;30667;43.614;1.442;2023-06-01T00:15:47;16.00;14.75;7.50
44933;PMS3003;30667;43.614;1.442;2023-06-01T00:18:13;15.75;15.50;8.75
44933;PMS3003;30667;43.614;1.442;2023-06-01T00:20:40;16.20;15.00;8.60
44933;PMS3003;30667;43.614;1.442;2023-06-01T00:23:06;16.00;14.00;8.00
44933;PMS3003;30667;43.614;1.442;2023-06-01T00:25:31;16.25;14.50;8.00
44933;PMS3003;30667;43.614;1.442;2023-06-01T00:27:57;16.50;16.00;10.00
44933;PMS3003;30667;43.614;1.442;2023-06-01T00:30:22;14.00;14.00;9.00
44933;PMS3003;30667;43.614;1.442;2023-06-01T00:32:47;17.00;15.25;8.00
44933;PMS3003;30667;43.614;1.442;2023-06-01T00:35:13;16.25;15.25;8.25
44933;PMS3003;30667;43.614;1.442;2023-06-01T00:37:38;16.00;15.00;8.00
44933;PMS3003;30667;43.614;1.442;2023-06-01T00:40:04;17.00;15.25;9.25
44933;PMS3003;30667;43.614;1.442;2023-06-01T00:42:29;17.60;16.60;8.60
44933;PMS3003;30667;43.614;1.442;2023-06-01T00:44:55;19.75;15.25;7.75
44933;PMS3003;30667;43.614;1.442;2023-06-01T00:47:20;17.25;15.00;8.25
44933;PMS3003;30667;43.614;1.442;2023-06-01T00:49:46;18.00;16.00;8.25
44933;PMS3003;30667;43.614;1.442;2023-06-01T00:52:12;15.50;14.50;7.50
44933;PMS3003;30667;43.614;1.442;2023-06-01T00:54:39;17.00;15.80;8.00
44933;PMS3003;30667;43.614;1.442;2023-06-01T00:57:05;13.60;13.00;7.20
44933;PMS3003;30667;43.614;1.442;2023-06-01T00:59:31;16.00;14.40;8.20
44933;PMS3003;30667;43.614;1.442;2023-06-01T01:01:58;15.40;14.00;9.00
44933;PMS3003;30667;43.614;1.442;2023-06-01T01:04:23;21.00;16.25;10.00
44933;PMS3003;30667;43.614;1.442;2023-06-01T01:12:02;18.20;16.20;9.00
44933;PMS3003;30667;43.614;1.442;2023-06-01T01:14:40;17.00;15.40;9.60
44933;PMS3003;30667;43.614;1.442;2023-06-01T01:17:29;14.00;14.00;7.20
44933;PMS3003;30667;43.614;1.442;2023-06-01T01:20:12;14.20;13.40;7.40
44933;PMS3003;30667;43.614;1.442;2023-06-01T01:26:08;14.60;13.60;8.00
44933;PMS3003;30667;43.614;1.442;2023-06-01T01:28:58;18.60;15.60;8.80
44933;PMS3003;30667;43.614;1.442;2023-06-01T01:31:27;17.20;15.40;9.40
44933;PMS3003;30667;43.614;1.442;2023-06-01T01:33:55;20.00;16.00;9.40
44933;PMS3003;30667;43.614;1.442;2023-06-01T01:36:22;15.80;15.20;8.00
44933;PMS3003;30667;43.614;1.442;2023-06-01T01:38:48;14.80;14.20;8.60
44933;PMS3003;30667;43.614;1.442;2023-06-01T01:41:14;14.25;13.25;7.50
44933;PMS3003;30667;43.614;1.442;2023-06-01T01:43:39;14.25;13.00;6.75
44933;PMS3003;30667;43.614;1.442;2023-06-01T01:46:11;14.00;13.60;8.00
44933;PMS3003;30667;43.614;1.442;2023-06-01T01:49:18;16.20;15.00;7.60
44933;PMS3003;30667;43.614;1.442;2023-06-01T01:54:23;16.20;15.00;8.20
44933;PMS3003;30667;43.614;1.442;2023-06-01T01:56:50;13.80;12.80;6.60
44933;PMS3003;30667;43.614;1.442;2023-06-01T01:59:18;14.80;14.00;7.80
44933;PMS3003;30667;43.614;1.442;2023-06-01T02:01:44;15.00;13.20;8.00
44933;PMS3003;30667;43.614;1.442;2023-06-01T02:04:11;14.60;14.00;8.00
44933;PMS3003;30667;43.614;1.442;2023-06-01T02:06:36;13.00;12.25;7.00
44933;PMS3003;30667;43.614;1.442;2023-06-01T02:09:03;15.50;13.00;6.00
44933;PMS3003;30667;43.614;1.442;2023-06-01T02:11:32;12.80;12.80;7.00
44933;PMS3003;30667;43.614;1.442;2023-06-01T02:13:57;14.40;12.40;6.20
44933;PMS3003;30667;43.614;1.442;2023-06-01T02:16:23;15.00;14.00;7.00
44933;PMS3003;30667;43.614;1.442;2023-06-01T02:18:48;13.75;11.75;6.50
44933;PMS3003;30667;43.614;1.442;2023-06-01T02:21:14;12.80;12.60;7.00
44933;PMS3003;30667;43.614;1.442;2023-06-01T02:23:40;13.20;12.20;6.20
44933;PMS3003;30667;43.614;1.442;2023-06-01T02:26:07;14.00;12.60;7.00
44933;PMS3003;30667;43.614;1.442;2023-06-01T02:28:33;14.80;13.80;8.00
44933;PMS3003;30667;43.614;1.442;2023-06-01T02:31:04;15.20;13.80;8.40
44933;PMS3003;30667;43.614;1.442;2023-06-01T02:33:30;16.00;15.60;8.60
44933;PMS3003;30667;43.614;1.442;2023-06-01T02:35:56;16.75;15.50;8.50
44933;PMS3003;30667;43.614;1.442;2023-06-01T02:38:21;12.75;12.75;7.00
44933;PMS3003;30667;43.614;1.442;2023-06-01T02:40:46;14.00;13.75;7.00
44933;PMS3003;30667;43.614;1.442;2023-06-01T02:43:12;15.00;13.00;7.75
44933;PMS3003;30667;43.614;1.442;2023-06-01T02:45:37;18.00;15.00;8.50
44933;PMS3003;30667;43.614;1.442;2023-06-01T02:48:03;18.80;15.40;8.20
44933;PMS3003;30667;43.614;1.442;2023-06-01T02:50:29;15.75;13.75;7.00
44933;PMS3003;30667;43.614;1.442;2023-06-01T02:52:54;15.00;14.00;7.75
44933;PMS3003;30667;43.614;1.442;2023-06-01T02:55:20;14.50;14.50;8.00
44933;PMS3003;30667;43.614;1.442;2023-06-01T02:57:45;15.75;13.50;7.50
44933;PMS3003;30667;43.614;1.442;2023-06-01T03:00:11;14.25;14.25;8.00
44933;PMS3003;30667;43.614;1.442;2023-06-01T03:02:43;15.60;13.80;7.20
44933;PMS3003;30667;43.614;1.442;2023-06-01T03:05:10;13.60;11.20;6.00
44933;PMS3003;30667;43.614;1.442;2023-06-01T03:07:40;14.00;14.00;8.20
44933;PMS3003;30667;43.614;1.442;2023-06-01T03:10:06;12.00;11.80;7.00
44933;PMS3003;30667;43.614;1.442;2023-06-01T03:12:32;14.00;12.00;6.60
44933;PMS3003;30667;43.614;1.442;2023-06-01T03:14:57;13.75;13.25;6.75
44933;PMS3003;30667;43.614;1.442;2023-06-01T03:17:23;12.75;12.25;6.50
44933;PMS3003;30667;43.614;1.442;2023-06-01T03:19:48;13.25;12.75;6.75
44933;PMS3003;30667;43.614;1.442;2023-06-01T03:22:13;13.00;12.00;6.00
44933;PMS3003;30667;43.614;1.442;2023-06-01T03:24:39;12.20;11.60;6.40
44933;PMS3003;30667;43.614;1.442;2023-06-01T03:27:06;14.00;14.00;7.40
44933;PMS3003;30667;43.614;1.442;2023-06-01T03:29:32;14.20;12.40;6.80
44933;PMS3003;30667;43.614;1.442;2023-06-01T03:31:57;13.00;12.00;6.00
44933;PMS3003;30667;43.614;1.442;2023-06-01T03:34:24;13.80;13.40;7.00
44933;PMS3003;30667;43.614;1.442;2023-06-01T03:36:49;12.00;11.75;6.00
44933;PMS3003;30667;43.614;1.442;2023-06-01T03:39:15;9.50;9.50;5.00
44933;PMS3003;30667;43.614;1.442;2023-06-01T03:41:41;11.20;9.40;5.00
44933;PMS3003;30667;43.614;1.442;2023-06-01T03:44:08;11.20;11.20;6.00
44933;PMS3003;30667;43.614;1.442;2023-06-01T03:46:35;13.00;11.20;6.00
44933;PMS3003;30667;43.614;1.442;2023-06-01T03:49:00;12.50;11.50;6.50
44933;PMS3003;30667;43.614;1.442;2023-06-01T03:51:26;11.50;8.50;6.25
44933;PMS3003;30667;43.614;1.442;2023-06-01T03:53:51;14.00;12.75;6.00
44933;PMS3003;30667;43.614;1.442;2023-06-01T03:56:16;13.75;11.00;5.00
44933;PMS3003;30667;43.614;1.442;2023-06-01T03:58:42;12.00;12.00;7.00
44933;PMS3003;30667;43.614;1.442;2023-06-01T04:01:07;15.00;13.00;8.00
44933;PMS3003;30667;43.614;1.442;2023-06-01T04:03:33;12.50;12.00;7.00
44933;PMS3003;30667;43.614;1.442;2023-06-01T04:05:58;14.00;13.00;6.75
44933;PMS3003;30667;43.614;1.442;2023-06-01T04:08:25;12.60;12.40;6.40
44933;PMS3003;30667;43.614;1.442;2023-06-01T04:10:51;13.00;12.60;6.00
44933;PMS3003;30667;43.614;1.442;2023-06-01T04:13:17;14.00;13.00;7.75
44933;PMS3003;30667;43.614;1.442;2023-06-01T04:15:42;11.00;11.00;5.00
44933;PMS3003;30667;43.614;1.442;2023-06-01T04:18:08;13.00;13.00;5.00
44933;PMS3003;30667;43.614;1.442;2023-06-01T04:20:33;14.50;13.00;6.00
44933;PMS3003;30667;43.614;1.442;2023-06-01T04:23:00;12.60;11.40;6.00
44933;PMS3003;30667;43.614;1.442;2023-06-01T04:25:25;13.25;12.00;6.00
44933;PMS3003;30667;43.614;1.442;2023-06-01T04:27:50;13.50;12.25;6.75
44933;PMS3003;30667;43.614;1.442;2023-06-01T04:30:16;13.00;12.50;7.00
44933;PMS3003;30667;43.614;1.442;2023-06-01T04:32:42;13.00;11.80;6.40
44933;PMS3003;30667;43.614;1.442;2023-06-01T04:35:09;13.60;11.00;6.00
44933;PMS3003;30667;43.614;1.442;2023-06-01T04:37:35;16.20;14.00;7.20
44933;PMS3003;30667;43.614;1.442;2023-06-01T04:40:03;12.60;11.40;6.00
44933;PMS3003;30667;43.614;1.442;2023-06-01T04:42:33;14.40;11.80;6.60
44933;PMS3003;30667;43.614;1.442;2023-06-01T04:44:59;14.40;12.60;5.80
44933;PMS3003;30667;43.614;1.442;2023-06-01T04:47:29;12.80;12.40;6.80
44933;PMS3003;30667;43.614;1.442;2023-06-01T04:49:56;12.40;10.60;6.00
44933;PMS3003;30667;43.614;1.442;2023-06-01T04:52:22;13.75;11.75;6.25
44933;PMS3003;30667;43.614;1.442;2023-06-01T04:54:48;15.00;13.40;7.20
44933;PMS3003;30667;43.614;1.442;2023-06-01T04:57:13;12.00;11.50;7.00
44933;PMS3003;30667;43.614;1.442;2023-06-01T04:59:42;13.25;12.50;6.50
44933;PMS3003;30667;43.614;1.442;2023-06-01T05:02:07;12.40;12.20;7.00
44933;PMS3003;30667;43.614;1.442;2023-06-01T05:04:33;11.00;10.40;6.60
44933;PMS3003;30667;43.614;1.442;2023-06-01T05:06:59;12.00;11.00;6.00
44933;PMS3003;30667;43.614;1.442;2023-06-01T05:09:25;14.60;13.60;7.00
44933;PMS3003;30667;43.614;1.442;2023-06-01T05:11:51;14.75;13.25;7.00
44933;PMS3003;30667;43.614;1.442;2023-06-01T05:14:16;15.00;14.00;7.00
44933;PMS3003;30667;43.614;1.442;2023-06-01T05:16:42;15.40;14.60;7.00
44933;PMS3003;30667;43.614;1.442;2023-06-01T05:19:08;13.00;13.00;7.25
44933;PMS3003;30667;43.614;1.442;2023-06-01T05:21:33;14.00;13.25;7.00
44933;PMS3003;30667;43.614;1.442;2023-06-01T05:23:58;13.50;12.00;7.00
44933;PMS3003;30667;43.614;1.442;2023-06-01T05:26:24;12.50;11.75;6.00
44933;PMS3003;30667;43.614;1.442;2023-06-01T05:28:50;12.20;12.20;6.00
44933;PMS3003;30667;43.614;1.442;2023-06-01T05:31:15;13.75;12.00;6.00
44933;PMS3003;30667;43.614;1.442;2023-06-01T05:33:41;14.50;12.75;6.00
44933;PMS3003;30667;43.614;1.442;2023-06-01T05:36:07;14.25;12.75;6.50
44933;PMS3003;30667;43.614;1.442;2023-06-01T05:38:32;13.50;12.75;6.75
44933;PMS3003;30667;43.614;1.442;2023-06-01T05:40:58;12.00;11.50;6.00
44933;PMS3003;30667;43.614;1.442;2023-06-01T05:43:23;12.75;12.50;6.75
44933;PMS3003;30667;43.614;1.442;2023-06-01T05:45:49;13.00;12.00;6.75
44933;PMS3003;30667;43.614;1.442;2023-06-01T05:48:14;14.00;13.00;7.50
44933;PMS3003;30667;43.614;1.442;2023-06-01T05:50:40;15.00;12.75;7.00
44933;PMS3003;30667;43.614;1.442;2023-06-01T05:53:07;14.60;13.00;6.00
44933;PMS3003;30667;43.614;1.442;2023-06-01T05:55:33;12.80;11.60;6.80
44933;PMS3003;30667;43.614;1.442;2023-06-01T05:57:58;13.00;12.00;6.00
44933;PMS3003;30667;43.614;1.442;2023-06-01T06:00:23;12.75;12.00;7.00
44933;PMS3003;30667;43.614;1.442;2023-06-01T06:02:49;14.00;11.75;6.00
44933;PMS3003;30667;43.614;1.442;2023-06-01T06:05:15;12.75;12.00;7.00
44933;PMS3003;30667;43.614;1.442;2023-06-01T06:07:41;12.00;11.00;6.50
44933;PMS3003;30667;43.614;1.442;2023-06-01T06:10:06;15.00;11.75;7.00
44933;PMS3003;30667;43.614;1.442;2023-06-01T06:12:32;12.60;12.00;7.00
44933;PMS3003;30667;43.614;1.442;2023-06-01T06:14:58;10.00;10.00;7.00
44933;PMS3003;30667;43.614;1.442;2023-06-01T06:17:23;16.00;15.00;9.00
44933;PMS3003;30667;43.614;1.442;2023-06-01T06:19:49;12.00;12.00;7.00
44933;PMS3003;30667;43.614;1.442;2023-06-01T06:22:14;14.00;12.00;6.00
44933;PMS3003;30667;43.614;1.442;2023-06-01T06:24:40;12.40;12.00;7.00
44933;PMS3003;30667;43.614;1.442;2023-06-01T06:27:07;15.00;14.40;8.00
44933;PMS3003;30667;43.614;1.442;2023-06-01T06:29:33;13.40;12.80;7.80
44933;PMS3003;30667;43.614;1.442;2023-06-01T06:31:58;13.25;12.25;7.25
44933;PMS3003;30667;43.614;1.442;2023-06-01T06:34:24;14.75;12.00;7.00
44933;PMS3003;30667;43.614;1.442;2023-06-01T06:36:49;14.00;13.00;6.75
44933;PMS3003;30667;43.614;1.442;2023-06-01T06:39:17;12.00;11.80;6.00
44933;PMS3003;30667;43.614;1.442;2023-06-01T06:41:43;15.25;14.25;7.00
44933;PMS3003;30667;43.614;1.442;2023-06-01T06:44:08;15.25;13.75;7.50
44933;PMS3003;30667;43.614;1.442;2023-06-01T06:46:34;13.25;13.00;7.00
44933;PMS3003;30667;43.614;1.442;2023-06-01T06:48:59;10.75;10.00;5.00
44933;PMS3003;30667;43.614;1.442;2023-06-01T06:51:25;13.25;11.00;6.50
44933;PMS3003;30667;43.614;1.442;2023-06-01T06:53:51;15.50;14.25;8.00
44933;PMS3003;30667;43.614;1.442;2023-06-01T06:56:16;15.25;13.00;7.00
44933;PMS3003;30667;43.614;1.442;2023-06-01T06:58:43;14.00;12.75;7.00
44933;PMS3003;30667;43.614;1.442;2023-06-01T07:01:09;11.60;11.00;6.40
44933;PMS3003;30667;43.614;1.442;2023-06-01T07:03:35;15.00;13.40;8.00
44933;PMS3003;30667;43.614;1.442;2023-06-01T07:06:00;12.50;10.75;5.75
44933;PMS3003;30667;43.614;1.442;2023-06-01T07:08:26;9.25;9.25;6.00
44933;PMS3003;30667;43.614;1.442;2023-06-01T07:10:52;9.00;9.00;5.25
44933;PMS3003;30667;43.614;1.442;2023-06-01T07:13:20;9.40;9.00;5.00
44933;PMS3003;30667;43.614;1.442;2023-06-01T07:15:46;10.25;9.75;5.00
44933;PMS3003;30667;43.614;1.442;2023-06-01T07:18:11;12.50;10.00;6.25
44933;PMS3003;30667;43.614;1.442;2023-06-01T07:20:37;10.50;10.00;6.50
44933;PMS3003;30667;43.614;1.442;2023-06-01T07:23:02;10.00;9.25;5.25
44933;PMS3003;30667;43.614;1.442;2023-06-01T07:25:27;13.25;11.75;6.00
44933;PMS3003;30667;43.614;1.442;2023-06-01T07:27:53;13.50;11.00;6.00
44933;PMS3003;30667;43.614;1.442;2023-06-01T07:30:21;11.60;10.40;5.80
44933;PMS3003;30667;43.614;1.442;2023-06-01T07:32:47;14.50;11.25;5.75
44933;PMS3003;30667;43.614;1.442;2023-06-01T07:35:12;10.00;9.75;5.25
44933;PMS3003;30667;43.614;1.442;2023-06-01T07:37:37;11.50;11.25;6.25
44933;PMS3003;30667;43.614;1.442;2023-06-01T07:40:03;12.00;11.75;5.00
44933;PMS3003;30667;43.614;1.442;2023-06-01T07:42:31;12.00;10.80;6.00
44933;PMS3003;30667;43.614;1.442;2023-06-01T07:44:57;11.25;9.75;6.00
44933;PMS3003;30667;43.614;1.442;2023-06-01T07:47:22;10.00;9.50;5.75
44933;PMS3003;30667;43.614;1.442;2023-06-01T07:49:50;10.60;9.80;5.40
44933;PMS3003;30667;43.614;1.442;2023-06-01T07:52:16;9.60;9.40;6.00
44933;PMS3003;30667;43.614;1.442;2023-06-01T07:54:42;10.00;10.00;6.00
44933;PMS3003;30667;43.614;1.442;2023-06-01T07:57:08;13.25;12.00;7.00
44933;PMS3003;30667;43.614;1.442;2023-06-01T07:59:33;11.00;10.25;6.00
44933;PMS3003;30667;43.614;1.442;2023-06-01T08:01:59;11.75;9.75;5.00
44933;PMS3003;30667;43.614;1.442;2023-06-01T08:04:25;10.60;10.60;5.80
44933;PMS3003;30667;43.614;1.442;2023-06-01T08:06:52;9.60;9.60;5.60
44933;PMS3003;30667;43.614;1.442;2023-06-01T08:09:21;16.20;12.20;6.40
44933;PMS3003;30667;43.614;1.442;2023-06-01T08:11:46;10.50;9.00;5.50
44933;PMS3003;30667;43.614;1.442;2023-06-01T08:14:13;12.40;11.00;5.80
44933;PMS3003;30667;43.614;1.442;2023-06-01T08:16:38;10.00;9.00;5.75
44933;PMS3003;30667;43.614;1.442;2023-06-01T08:19:04;12.00;11.00;6.25
44933;PMS3003;30667;43.614;1.442;2023-06-01T08:21:29;11.00;10.50;6.50
44933;PMS3003;30667;43.614;1.442;2023-06-01T08:23:55;9.00;9.00;5.00
44933;PMS3003;30667;43.614;1.442;2023-06-01T08:26:21;9.25;9.25;5.00
44933;PMS3003;30667;43.614;1.442;2023-06-01T08:28:47;10.80;9.40;5.00
44933;PMS3003;30667;43.614;1.442;2023-06-01T08:31:20;10.80;10.40;5.00
44933;PMS3003;30667;43.614;1.442;2023-06-01T08:33:46;10.40;9.40;5.00
44933;PMS3003;30667;43.614;1.442;2023-06-01T08:36:13;12.00;10.00;5.00
44933;PMS3003;30667;43.614;1.442;2023-06-01T08:38:40;10.40;9.80;6.20
44933;PMS3003;30667;43.614;1.442;2023-06-01T08:43:54;12.00;11.80;5.80
44933;PMS3003;30667;43.614;1.442;2023-06-01T08:46:27;12.20;9.60;6.00
44933;PMS3003;30667;43.614;1.442;2023-06-01T08:48:56;10.00;9.40;5.00
44933;PMS3003;30667;43.614;1.442;2023-06-01T08:51:24;10.20;9.40;5.00
44933;PMS3003;30667;43.614;1.442;2023-06-01T08:53:51;10.00;10.00;5.60
44933;PMS3003;30667;43.614;1.442;2023-06-01T08:56:17;11.00;10.00;6.00
44933;PMS3003;30667;43.614;1.442;2023-06-01T08:58:44;11.40;9.80;5.80
44933;PMS3003;30667;43.614;1.442;2023-06-01T09:01:19;12.60;11.40;7.00
44933;PMS3003;30667;43.614;1.442;2023-06-01T09:03:47;12.00;10.40;6.00
44933;PMS3003;30667;43.614;1.442;2023-06-01T09:06:13;12.80;12.00;6.00
44933;PMS3003;30667;43.614;1.442;2023-06-01T09:08:41;10.20;10.20;5.40
44933;PMS3003;30667;43.614;1.442;2023-06-01T09:11:07;12.00;11.25;6.00
44933;PMS3003;30667;43.614;1.442;2023-06-01T09:13:33;11.00;10.50;6.25
44933;PMS3003;30667;43.614;1.442;2023-06-01T09:16:02;8.80;8.60;5.00
44933;PMS3003;30667;43.614;1.442;2023-06-01T09:18:28;13.20;12.00;6.20
44933;PMS3003;30667;43.614;1.442;2023-06-01T09:20:54;12.80;12.00;8.00
44933;PMS3003;30667;43.614;1.442;2023-06-01T09:23:34;12.80;10.40;6.20
44933;PMS3003;30667;43.614;1.442;2023-06-01T09:34:08;13.00;10.20;6.00
44933;PMS3003;30667;43.614;1.442;2023-06-01T09:36:36;9.20;9.20;5.20
44933;PMS3003;30667;43.614;1.442;2023-06-01T09:39:09;11.40;10.60;6.00
44933;PMS3003;30667;43.614;1.442;2023-06-01T09:41:49;10.60;10.00;6.00
44933;PMS3003;30667;43.614;1.442;2023-06-01T09:44:31;11.80;10.00;5.80
44933;PMS3003;30667;43.614;1.442;2023-06-01T09:47:08;14.40;12.00;6.60
44933;PMS3003;30667;43.614;1.442;2023-06-01T09:49:45;10.40;9.60;6.00
44933;PMS3003;30667;43.614;1.442;2023-06-01T09:52:15;9.80;9.80;5.80
44933;PMS3003;30667;43.614;1.442;2023-06-01T09:54:48;12.20;11.00;6.00
44933;PMS3003;30667;43.614;1.442;2023-06-01T09:57:24;12.80;12.60;7.60
44933;PMS3003;30667;43.614;1.442;2023-06-01T09:59:51;13.60;12.00;6.40
44933;PMS3003;30667;43.614;1.442;2023-06-01T10:02:17;12.50;11.75;7.00
44933;PMS3003;30667;43.614;1.442;2023-06-01T10:04:47;11.40;10.60;6.60
44933;PMS3003;30667;43.614;1.442;2023-06-01T10:07:14;11.20;10.40;6.00
44933;PMS3003;30667;43.614;1.442;2023-06-01T10:09:41;10.00;9.60;5.00
44933;PMS3003;30667;43.614;1.442;2023-06-01T10:12:08;12.20;12.20;7.00
44933;PMS3003;30667;43.614;1.442;2023-06-01T10:14:35;14.25;10.50;6.75
44933;PMS3003;30667;43.614;1.442;2023-06-01T10:17:04;10.80;9.00;5.20
44933;PMS3003;30667;43.614;1.442;2023-06-01T10:19:30;11.00;10.20;6.40
44933;PMS3003;30667;43.614;1.442;2023-06-01T10:21:59;13.00;12.25;7.00
44933;PMS3003;30667;43.614;1.442;2023-06-01T10:24:25;11.40;11.40;6.60
44933;PMS3003;30667;43.614;1.442;2023-06-01T10:29:36;11.00;11.00;6.20
44933;PMS3003;30667;43.614;1.442;2023-06-01T10:32:02;12.60;12.00;7.40
44933;PMS3003;30667;43.614;1.442;2023-06-01T10:39:29;11.25;11.25;7.00
44933;PMS3003;30667;43.614;1.442;2023-06-01T10:42:35;12.00;11.60;8.00
44933;PMS3003;30667;43.614;1.442;2023-06-01T10:54:52;10.80;10.80;7.00
44933;PMS3003;30667;43.614;1.442;2023-06-01T11:00:39;12.80;11.80;7.60
44933;PMS3003;30667;43.614;1.442;2023-06-01T11:13:27;13.20;12.40;7.00
44933;PMS3003;30667;43.614;1.442;2023-06-01T11:21:19;12.20;11.80;7.00
44933;PMS3003;30667;43.614;1.442;2023-06-01T11:23:46;13.80;12.80;7.60
44933;PMS3003;30667;43.614;1.442;2023-06-01T11:26:14;13.40;12.80;7.00
44933;PMS3003;30667;43.614;1.442;2023-06-01T11:28:43;10.80;9.80;5.60
44933;PMS3003;30667;43.614;1.442;2023-06-01T11:31:14;12.00;12.00;7.60
44933;PMS3003;30667;43.614;1.442;2023-06-01T11:33:41;11.40;11.20;6.80
44933;PMS3003;30667;43.614;1.442;2023-06-01T11:36:17;12.00;11.00;7.80
44933;PMS3003;30667;43.614;1.442;2023-06-01T11:38:45;11.20;11.00;6.00
44933;PMS3003;30667;43.614;1.442;2023-06-01T11:41:11;12.20;12.00;7.60
44933;PMS3003;30667;43.614;1.442;2023-06-01T11:43:36;13.75;11.25;6.25
44933;PMS3003;30667;43.614;1.442;2023-06-01T11:46:08;12.00;12.00;7.00
44933;PMS3003;30667;43.614;1.442;2023-06-01T11:48:36;16.60;13.00;7.00
44933;PMS3003;30667;43.614;1.442;2023-06-01T11:51:02;14.50;13.25;8.25
44933;PMS3003;30667;43.614;1.442;2023-06-01T11:53:30;13.80;13.20;7.00
44933;PMS3003;30667;43.614;1.442;2023-06-01T11:55:57;15.60;14.20;9.20
44933;PMS3003;30667;43.614;1.442;2023-06-01T11:58:24;14.80;14.20;9.20
44933;PMS3003;30667;43.614;1.442;2023-06-01T12:00:50;18.40;13.80;8.00
44933;PMS3003;30667;43.614;1.442;2023-06-01T12:03:17;15.40;14.00;8.20
44933;PMS3003;30667;43.614;1.442;2023-06-01T12:05:43;16.50;14.25;7.50
44933;PMS3003;30667;43.614;1.442;2023-06-01T12:08:20;14.80;13.80;8.60
44933;PMS3003;30667;43.614;1.442;2023-06-01T12:10:47;14.40;14.40;9.00
44933;PMS3003;30667;43.614;1.442;2023-06-01T12:13:16;14.60;13.40;7.80
44933;PMS3003;30667;43.614;1.442;2023-06-01T12:15:43;15.60;14.60;9.20
44933;PMS3003;30667;43.614;1.442;2023-06-01T12:18:09;14.20;12.40;7.00
44933;PMS3003;30667;43.614;1.442;2023-06-01T12:20:39;16.00;14.80;10.40
44933;PMS3003;30667;43.614;1.442;2023-06-01T12:25:34;14.20;14.20;9.80
44933;PMS3003;30667;43.614;1.442;2023-06-01T12:28:03;16.00;14.50;9.25
44933;PMS3003;30667;43.614;1.442;2023-06-01T12:30:30;16.20;15.00;8.00
44933;PMS3003;30667;43.614;1.442;2023-06-01T12:32:56;17.00;15.00;10.00
44933;PMS3003;30667;43.614;1.442;2023-06-01T12:35:22;15.20;15.00;9.40
44933;PMS3003;30667;43.614;1.442;2023-06-01T12:38:04;14.60;13.00;8.80
44933;PMS3003;30667;43.614;1.442;2023-06-01T12:40:31;15.00;14.20;8.20
44933;PMS3003;30667;43.614;1.442;2023-06-01T12:42:57;14.25;13.50;9.00
44933;PMS3003;30667;43.614;1.442;2023-06-01T12:45:22;18.50;16.75;9.50
44933;PMS3003;30667;43.614;1.442;2023-06-01T12:47:48;15.25;13.00;8.00
44933;PMS3003;30667;43.614;1.442;2023-06-01T12:50:13;13.00;12.50;8.00
44933;PMS3003;30667;43.614;1.442;2023-06-01T12:52:40;12.40;12.40;8.20
44933;PMS3003;30667;43.614;1.442;2023-06-01T12:55:09;13.40;13.00;8.00
44933;PMS3003;30667;43.614;1.442;2023-06-01T12:57:35;14.40;13.80;8.00
44933;PMS3003;30667;43.614;1.442;2023-06-01T13:00:03;14.00;13.20;9.00
44933;PMS3003;30667;43.614;1.442;2023-06-01T13:02:30;13.80;13.00;8.00
44933;PMS3003;30667;43.614;1.442;2023-06-01T13:04:55;13.25;13.00;8.25
44933;PMS3003;30667;43.614;1.442;2023-06-01T13:07:22;14.00;13.20;8.00
44933;PMS3003;30667;43.614;1.442;2023-06-01T13:09:48;14.00;13.00;8.50
44933;PMS3003;30667;43.614;1.442;2023-06-01T13:12:17;13.60;13.20;8.00
44933;PMS3003;30667;43.614;1.442;2023-06-01T13:14:43;14.80;13.60;8.40
44933;PMS3003;30667;43.614;1.442;2023-06-01T13:17:18;13.00;12.60;8.60
44933;PMS3003;30667;43.614;1.442;2023-06-01T13:19:44;14.20;13.00;8.00
44933;PMS3003;30667;43.614;1.442;2023-06-01T13:22:10;14.80;13.00;9.00
44933;PMS3003;30667;43.614;1.442;2023-06-01T13:24:36;15.20;14.00;9.00
44933;PMS3003;30667;43.614;1.442;2023-06-01T13:27:02;13.00;13.00;8.25
44933;PMS3003;30667;43.614;1.442;2023-06-01T13:29:29;13.60;13.00;8.00
44933;PMS3003;30667;43.614;1.442;2023-06-01T13:31:55;14.50;13.75;9.00
44933;PMS3003;30667;43.614;1.442;2023-06-01T13:34:20;15.00;14.50;9.00
44933;PMS3003;30667;43.614;1.442;2023-06-01T13:36:47;15.60;13.80;9.80
44933;PMS3003;30667;43.614;1.442;2023-06-01T13:39:14;16.40;13.80;9.20
44933;PMS3003;30667;43.614;1.442;2023-06-01T13:41:40;14.80;14.20;8.00
44933;PMS3003;30667;43.614;1.442;2023-06-01T13:44:06;13.20;13.00;9.00
44933;PMS3003;30667;43.614;1.442;2023-06-01T13:46:33;16.50;14.00;9.00
44933;PMS3003;30667;43.614;1.442;2023-06-01T13:48:58;13.80;13.00;8.00
44933;PMS3003;30667;43.614;1.442;2023-06-01T13:51:23;14.50;12.75;8.00
44933;PMS3003;30667;43.614;1.442;2023-06-01T13:53:49;14.75;14.75;9.50
44933;PMS3003;30667;43.614;1.442;2023-06-01T13:56:14;15.25;13.75;9.00
44933;PMS3003;30667;43.614;1.442;2023-06-01T13:58:39;18.00;15.00;9.00
44933;PMS3003;30667;43.614;1.442;2023-06-01T14:01:05;14.75;14.00;9.50
44933;PMS3003;30667;43.614;1.442;2023-06-01T14:03:31;19.00;16.50;9.50
44933;PMS3003;30667;43.614;1.442;2023-06-01T14:05:56;14.50;13.50;8.25
44933;PMS3003;30667;43.614;1.442;2023-06-01T14:08:22;17.00;14.50;10.25
44933;PMS3003;30667;43.614;1.442;2023-06-01T14:10:47;17.00;16.50;11.25
44933;PMS3003;30667;43.614;1.442;2023-06-01T14:13:12;15.75;14.50;9.50
44933;PMS3003;30667;43.614;1.442;2023-06-01T14:15:38;17.75;15.75;10.00
44933;PMS3003;30667;43.614;1.442;2023-06-01T14:18:03;16.75;16.50;10.75
44933;PMS3003;30667;43.614;1.442;2023-06-01T14:20:30;16.80;14.80;9.60
44933;PMS3003;30667;43.614;1.442;2023-06-01T14:22:55;18.75;17.25;11.00
44933;PMS3003;30667;43.614;1.442;2023-06-01T14:25:21;15.25;13.75;9.75
44933;PMS3003;30667;43.614;1.442;2023-06-01T14:27:46;15.50;15.00;9.75
44933;PMS3003;30667;43.614;1.442;2023-06-01T14:30:12;14.00;14.00;9.75
44933;PMS3003;30667;43.614;1.442;2023-06-01T14:32:38;17.80;14.20;9.00
44933;PMS3003;30667;43.614;1.442;2023-06-01T14:35:03;16.25;15.00;8.75
44933;PMS3003;30667;43.614;1.442;2023-06-01T14:37:29;16.50;15.25;9.50
44933;PMS3003;30667;43.614;1.442;2023-06-01T14:39:54;17.00;15.25;9.00
44933;PMS3003;30667;43.614;1.442;2023-06-01T14:42:20;15.50;14.00;9.00
44933;PMS3003;30667;43.614;1.442;2023-06-01T14:44:45;15.50;15.50;10.75
44933;PMS3003;30667;43.614;1.442;2023-06-01T14:47:10;17.00;16.00;11.00
44933;PMS3003;30667;43.614;1.442;2023-06-01T14:49:36;16.25;14.50;9.50
44933;PMS3003;30667;43.614;1.442;2023-06-01T14:52:03;14.40;13.60;9.20
44933;PMS3003;30667;43.614;1.442;2023-06-01T14:54:28;17.50;14.75;9.00
44933;PMS3003;30667;43.614;1.442;2023-06-01T14:56:54;17.25;14.50;8.75
44933;PMS3003;30667;43.614;1.442;2023-06-01T14:59:20;14.50;14.00;8.00